sensor_id;sensor_type;location;lat;lon;timestamp;P1;durP1;ratioP1;P2;durP2;ratioP2
15273;SDS011;7738;49.532;11.156;2024-03-08T00:01:22;26.65;;;13.50;;
15273;SDS011;7738;49.532;11.156;2024-03-08T00:03:54;21.83;;;12.07;;
15273;SDS011;7738;49.532;11.156;2024-03-08T00:06:24;21.47;;;13.47;;
15273;SDS011;7738;49.532;11.156;2024-03-08T00:08:55;24.27;;;13.63;;
15273;SDS011;7738;49.532;11.156;2024-03-08T00:11:25;23.47;;;14.13;;
15273;SDS011;7738;49.532;11.156;2024-03-08T00:13:58;24.87;;;13.43;;
15273;SDS011;7738;49.532;11.156;2024-03-08T00:16:28;25.13;;;14.60;;
15273;SDS011;7738;49.532;11.156;2024-03-08T00:18:59;23.77;;;12.97;;
15273;SDS011;7738;49.532;11.156;2024-03-08T00:21:29;26.57;;;15.33;;
15273;SDS011;7738;49.532;11.156;2024-03-08T00:23:59;25.63;;;14.47;;
15273;SDS011;7738;49.532;11.156;2024-03-08T00:26:30;27.40;;;15.23;;
15273;SDS011;7738;49.532;11.156;2024-03-08T00:29:03;24.60;;;13.90;;
15273;SDS011;7738;49.532;11.156;2024-03-08T00:31:34;23.38;;;12.20;;
15273;SDS011;7738;49.532;11.156;2024-03-08T00:34:04;24.23;;;13.77;;
15273;SDS011;7738;49.532;11.156;2024-03-08T00:36:38;22.77;;;13.38;;
15273;SDS011;7738;49.532;11.156;2024-03-08T00:39:08;22.00;;;13.37;;
15273;SDS011;7738;49.532;11.156;2024-03-08T00:41:39;25.57;;;14.23;;
15273;SDS011;7738;49.532;11.156;2024-03-08T00:44:14;30.70;;;14.23;;
15273;SDS011;7738;49.532;11.156;2024-03-08T00:46:44;28.13;;;15.03;;
15273;SDS011;7738;49.532;11.156;2024-03-08T00:49:17;21.45;;;11.88;;
15273;SDS011;7738;49.532;11.156;2024-03-08T00:51:48;26.50;;;14.83;;
15273;SDS011;7738;49.532;11.156;2024-03-08T00:54:18;25.33;;;13.40;;
15273;SDS011;7738;49.532;11.156;2024-03-08T00:56:49;27.13;;;14.60;;
15273;SDS011;7738;49.532;11.156;2024-03-08T00:59:22;25.47;;;13.93;;
15273;SDS011;7738;49.532;11.156;2024-03-08T01:01:52;25.17;;;12.07;;
15273;SDS011;7738;49.532;11.156;2024-03-08T01:04:23;21.50;;;12.50;;
15273;SDS011;7738;49.532;11.156;2024-03-08T01:06:56;27.93;;;13.73;;
15273;SDS011;7738;49.532;11.156;2024-03-08T01:09:26;28.30;;;13.37;;
15273;SDS011;7738;49.532;11.156;2024-03-08T01:11:57;24.43;;;14.27;;
15273;SDS011;7738;49.532;11.156;2024-03-08T01:14:30;23.13;;;12.63;;
15273;SDS011;7738;49.532;11.156;2024-03-08T01:17:01;25.13;;;14.43;;
15273;SDS011;7738;49.532;11.156;2024-03-08T01:19:31;30.00;;;14.27;;
15273;SDS011;7738;49.532;11.156;2024-03-08T01:22:01;27.77;;;14.40;;
15273;SDS011;7738;49.532;11.156;2024-03-08T01:24:32;25.23;;;14.63;;
15273;SDS011;7738;49.532;11.156;2024-03-08T01:27:02;26.87;;;13.80;;
15273;SDS011;7738;49.532;11.156;2024-03-08T01:29:37;19.57;;;12.73;;
15273;SDS011;7738;49.532;11.156;2024-03-08T01:32:07;27.03;;;13.50;;
15273;SDS011;7738;49.532;11.156;2024-03-08T01:34:38;25.47;;;13.87;;
15273;SDS011;7738;49.532;11.156;2024-03-08T01:37:08;24.33;;;14.00;;
15273;SDS011;7738;49.532;11.156;2024-03-08T01:39:41;24.30;;;13.50;;
15273;SDS011;7738;49.532;11.156;2024-03-08T01:42:11;22.93;;;12.57;;
15273;SDS011;7738;49.532;11.156;2024-03-08T01:44:47;25.93;;;13.57;;
15273;SDS011;7738;49.532;11.156;2024-03-08T01:47:18;28.13;;;15.85;;
15273;SDS011;7738;49.532;11.156;2024-03-08T01:49:49;28.67;;;14.87;;
15273;SDS011;7738;49.532;11.156;2024-03-08T01:52:20;31.40;;;15.93;;
15273;SDS011;7738;49.532;11.156;2024-03-08T01:54:52;22.63;;;14.73;;
15273;SDS011;7738;49.532;11.156;2024-03-08T01:57:22;23.83;;;13.40;;
15273;SDS011;7738;49.532;11.156;2024-03-08T01:59:55;27.10;;;15.10;;
15273;SDS011;7738;49.532;11.156;2024-03-08T02:02:25;25.07;;;14.43;;
15273;SDS011;7738;49.532;11.156;2024-03-08T02:04:58;28.03;;;15.07;;
15273;SDS011;7738;49.532;11.156;2024-03-08T02:07:29;25.93;;;14.20;;
15273;SDS011;7738;49.532;11.156;2024-03-08T02:09:59;27.93;;;15.57;;
15273;SDS011;7738;49.532;11.156;2024-03-08T02:12:30;29.73;;;15.73;;
15273;SDS011;7738;49.532;11.156;2024-03-08T02:15:03;25.93;;;14.67;;
15273;SDS011;7738;49.532;11.156;2024-03-08T02:17:34;25.00;;;15.80;;
15273;SDS011;7738;49.532;11.156;2024-03-08T02:20:04;30.67;;;15.23;;
15273;SDS011;7738;49.532;11.156;2024-03-08T02:22:39;25.40;;;13.87;;
15273;SDS011;7738;49.532;11.156;2024-03-08T02:25:10;26.87;;;16.23;;
15273;SDS011;7738;49.532;11.156;2024-03-08T02:27:41;33.30;;;14.13;;
15273;SDS011;7738;49.532;11.156;2024-03-08T02:30:11;25.70;;;14.00;;
15273;SDS011;7738;49.532;11.156;2024-03-08T02:32:44;29.40;;;14.53;;
15273;SDS011;7738;49.532;11.156;2024-03-08T02:35:15;29.67;;;14.40;;
15273;SDS011;7738;49.532;11.156;2024-03-08T02:37:47;30.07;;;15.87;;
15273;SDS011;7738;49.532;11.156;2024-03-08T02:40:18;27.37;;;14.07;;
15273;SDS011;7738;49.532;11.156;2024-03-08T02:42:48;24.33;;;12.97;;
15273;SDS011;7738;49.532;11.156;2024-03-08T02:45:19;29.23;;;14.47;;
15273;SDS011;7738;49.532;11.156;2024-03-08T02:47:49;32.20;;;15.67;;
15273;SDS011;7738;49.532;11.156;2024-03-08T02:50:19;27.30;;;15.30;;
15273;SDS011;7738;49.532;11.156;2024-03-08T02:52:52;26.50;;;15.70;;
15273;SDS011;7738;49.532;11.156;2024-03-08T02:55:23;28.43;;;13.80;;
15273;SDS011;7738;49.532;11.156;2024-03-08T02:57:53;27.50;;;13.93;;
15273;SDS011;7738;49.532;11.156;2024-03-08T03:00:23;27.93;;;14.13;;
15273;SDS011;7738;49.532;11.156;2024-03-08T03:02:54;28.27;;;14.83;;
15273;SDS011;7738;49.532;11.156;2024-03-08T03:05:24;27.13;;;15.10;;
15273;SDS011;7738;49.532;11.156;2024-03-08T03:07:57;28.57;;;15.10;;
15273;SDS011;7738;49.532;11.156;2024-03-08T03:10:27;27.67;;;14.17;;
15273;SDS011;7738;49.532;11.156;2024-03-08T03:12:58;26.90;;;13.67;;
15273;SDS011;7738;49.532;11.156;2024-03-08T03:15:28;27.70;;;13.97;;
15273;SDS011;7738;49.532;11.156;2024-03-08T03:17:58;26.60;;;13.57;;
15273;SDS011;7738;49.532;11.156;2024-03-08T03:20:29;31.60;;;14.60;;
15273;SDS011;7738;49.532;11.156;2024-03-08T03:23:10;27.43;;;14.50;;
15273;SDS011;7738;49.532;11.156;2024-03-08T03:25:47;26.23;;;14.03;;
15273;SDS011;7738;49.532;11.156;2024-03-08T03:28:19;28.77;;;16.17;;
15273;SDS011;7738;49.532;11.156;2024-03-08T03:30:50;28.10;;;15.10;;
15273;SDS011;7738;49.532;11.156;2024-03-08T03:33:21;24.40;;;13.73;;
15273;SDS011;7738;49.532;11.156;2024-03-08T03:35:51;25.77;;;14.70;;
15273;SDS011;7738;49.532;11.156;2024-03-08T03:38:24;33.43;;;16.67;;
15273;SDS011;7738;49.532;11.156;2024-03-08T03:40:54;29.80;;;16.47;;
15273;SDS011;7738;49.532;11.156;2024-03-08T03:43:31;30.43;;;16.83;;
15273;SDS011;7738;49.532;11.156;2024-03-08T03:46:01;29.53;;;15.33;;
15273;SDS011;7738;49.532;11.156;2024-03-08T03:48:32;33.00;;;15.87;;
15273;SDS011;7738;49.532;11.156;2024-03-08T03:51:03;28.23;;;15.70;;
15273;SDS011;7738;49.532;11.156;2024-03-08T03:53:36;31.13;;;14.97;;
15273;SDS011;7738;49.532;11.156;2024-03-08T03:56:06;27.47;;;15.07;;
15273;SDS011;7738;49.532;11.156;2024-03-08T03:58:37;31.87;;;17.47;;
15273;SDS011;7738;49.532;11.156;2024-03-08T04:01:07;27.80;;;16.03;;
15273;SDS011;7738;49.532;11.156;2024-03-08T04:03:40;33.43;;;15.97;;
15273;SDS011;7738;49.532;11.156;2024-03-08T04:06:11;28.97;;;15.77;;
15273;SDS011;7738;49.532;11.156;2024-03-08T04:08:44;29.13;;;15.63;;
15273;SDS011;7738;49.532;11.156;2024-03-08T04:11:14;30.30;;;16.80;;
15273;SDS011;7738;49.532;11.156;2024-03-08T04:13:45;32.50;;;16.13;;
15273;SDS011;7738;49.532;11.156;2024-03-08T04:16:15;29.03;;;14.37;;
15273;SDS011;7738;49.532;11.156;2024-03-08T04:18:45;30.43;;;15.60;;
15273;SDS011;7738;49.532;11.156;2024-03-08T04:21:16;28.20;;;15.40;;
15273;SDS011;7738;49.532;11.156;2024-03-08T04:23:49;29.97;;;14.47;;
15273;SDS011;7738;49.532;11.156;2024-03-08T04:26:19;29.20;;;16.00;;
15273;SDS011;7738;49.532;11.156;2024-03-08T04:28:49;26.33;;;15.23;;
15273;SDS011;7738;49.532;11.156;2024-03-08T04:31:19;30.03;;;14.23;;
15273;SDS011;7738;49.532;11.156;2024-03-08T04:33:50;30.37;;;14.90;;
15273;SDS011;7738;49.532;11.156;2024-03-08T04:36:20;29.00;;;14.87;;
15273;SDS011;7738;49.532;11.156;2024-03-08T04:38:54;33.33;;;15.67;;
15273;SDS011;7738;49.532;11.156;2024-03-08T04:41:24;29.27;;;16.13;;
15273;SDS011;7738;49.532;11.156;2024-03-08T04:43:54;26.73;;;14.20;;
15273;SDS011;7738;49.532;11.156;2024-03-08T04:46:25;27.47;;;15.87;;
15273;SDS011;7738;49.532;11.156;2024-03-08T04:48:55;28.10;;;16.57;;
15273;SDS011;7738;49.532;11.156;2024-03-08T04:51:26;35.10;;;17.37;;
15273;SDS011;7738;49.532;11.156;2024-03-08T04:53:59;30.27;;;16.57;;
15273;SDS011;7738;49.532;11.156;2024-03-08T04:56:31;28.80;;;16.10;;
15273;SDS011;7738;49.532;11.156;2024-03-08T04:59:02;28.80;;;18.03;;
15273;SDS011;7738;49.532;11.156;2024-03-08T05:01:34;30.73;;;16.00;;
15273;SDS011;7738;49.532;11.156;2024-03-08T05:04:05;24.00;;;14.73;;
15273;SDS011;7738;49.532;11.156;2024-03-08T05:06:36;34.67;;;17.63;;
15273;SDS011;7738;49.532;11.156;2024-03-08T05:09:09;36.23;;;17.87;;
15273;SDS011;7738;49.532;11.156;2024-03-08T05:11:43;27.83;;;17.30;;
15273;SDS011;7738;49.532;11.156;2024-03-08T05:14:14;32.60;;;17.03;;
15273;SDS011;7738;49.532;11.156;2024-03-08T05:16:47;28.47;;;16.20;;
15273;SDS011;7738;49.532;11.156;2024-03-08T05:19:18;31.47;;;16.53;;
15273;SDS011;7738;49.532;11.156;2024-03-08T05:21:50;34.87;;;18.40;;
15273;SDS011;7738;49.532;11.156;2024-03-08T05:24:22;30.97;;;16.87;;
15273;SDS011;7738;49.532;11.156;2024-03-08T05:26:52;34.03;;;17.10;;
15273;SDS011;7738;49.532;11.156;2024-03-08T05:29:23;31.60;;;16.93;;
15273;SDS011;7738;49.532;11.156;2024-03-08T05:31:53;34.27;;;18.23;;
15273;SDS011;7738;49.532;11.156;2024-03-08T05:34:25;33.37;;;17.47;;
15273;SDS011;7738;49.532;11.156;2024-03-08T05:36:55;32.77;;;15.57;;
15273;SDS011;7738;49.532;11.156;2024-03-08T05:39:29;26.63;;;15.30;;
15273;SDS011;7738;49.532;11.156;2024-03-08T05:42:00;32.07;;;17.33;;
15273;SDS011;7738;49.532;11.156;2024-03-08T05:44:30;28.23;;;16.20;;
15273;SDS011;7738;49.532;11.156;2024-03-08T05:47:01;32.33;;;17.13;;
15273;SDS011;7738;49.532;11.156;2024-03-08T05:49:33;34.10;;;17.27;;
15273;SDS011;7738;49.532;11.156;2024-03-08T05:52:04;41.07;;;17.90;;
15273;SDS011;7738;49.532;11.156;2024-03-08T05:54:36;29.40;;;18.13;;
15273;SDS011;7738;49.532;11.156;2024-03-08T05:57:07;41.07;;;19.30;;
15273;SDS011;7738;49.532;11.156;2024-03-08T05:59:38;39.07;;;19.40;;
15273;SDS011;7738;49.532;11.156;2024-03-08T06:02:08;36.53;;;19.20;;
15273;SDS011;7738;49.532;11.156;2024-03-08T06:04:39;42.20;;;18.57;;
15273;SDS011;7738;49.532;11.156;2024-03-08T06:07:09;33.00;;;18.30;;
15273;SDS011;7738;49.532;11.156;2024-03-08T06:09:42;35.20;;;18.57;;
15273;SDS011;7738;49.532;11.156;2024-03-08T06:12:14;31.63;;;17.30;;
15273;SDS011;7738;49.532;11.156;2024-03-08T06:14:46;34.63;;;18.37;;
15273;SDS011;7738;49.532;11.156;2024-03-08T06:17:16;35.70;;;19.13;;
15273;SDS011;7738;49.532;11.156;2024-03-08T06:19:47;32.67;;;18.33;;
15273;SDS011;7738;49.532;11.156;2024-03-08T06:22:17;38.87;;;19.97;;
15273;SDS011;7738;49.532;11.156;2024-03-08T06:24:50;32.00;;;17.07;;
15273;SDS011;7738;49.532;11.156;2024-03-08T06:27:20;36.77;;;19.20;;
15273;SDS011;7738;49.532;11.156;2024-03-08T06:29:51;37.63;;;18.13;;
15273;SDS011;7738;49.532;11.156;2024-03-08T06:32:21;41.53;;;20.83;;
15273;SDS011;7738;49.532;11.156;2024-03-08T06:34:52;40.00;;;20.23;;
15273;SDS011;7738;49.532;11.156;2024-03-08T06:37:23;41.23;;;19.30;;
15273;SDS011;7738;49.532;11.156;2024-03-08T06:39:56;39.00;;;19.30;;
15273;SDS011;7738;49.532;11.156;2024-03-08T06:42:27;41.58;;;21.63;;
15273;SDS011;7738;49.532;11.156;2024-03-08T06:45:00;46.23;;;23.80;;
15273;SDS011;7738;49.532;11.156;2024-03-08T06:47:32;35.87;;;20.37;;
15273;SDS011;7738;49.532;11.156;2024-03-08T06:50:02;39.10;;;19.83;;
15273;SDS011;7738;49.532;11.156;2024-03-08T06:52:33;40.60;;;20.07;;
15273;SDS011;7738;49.532;11.156;2024-03-08T06:55:06;38.40;;;20.07;;
15273;SDS011;7738;49.532;11.156;2024-03-08T06:57:39;38.00;;;18.87;;
15273;SDS011;7738;49.532;11.156;2024-03-08T07:00:10;39.93;;;20.27;;
15273;SDS011;7738;49.532;11.156;2024-03-08T07:02:45;42.75;;;19.67;;
15273;SDS011;7738;49.532;11.156;2024-03-08T07:05:16;38.70;;;19.67;;
15273;SDS011;7738;49.532;11.156;2024-03-08T07:07:46;32.83;;;19.30;;
15273;SDS011;7738;49.532;11.156;2024-03-08T07:10:20;33.57;;;19.47;;
15273;SDS011;7738;49.532;11.156;2024-03-08T07:12:51;39.00;;;18.57;;
15273;SDS011;7738;49.532;11.156;2024-03-08T07:15:22;34.93;;;17.90;;
15273;SDS011;7738;49.532;11.156;2024-03-08T07:17:52;35.50;;;17.50;;
15273;SDS011;7738;49.532;11.156;2024-03-08T07:20:23;31.65;;;16.88;;
15273;SDS011;7738;49.532;11.156;2024-03-08T07:22:55;35.42;;;18.58;;
15273;SDS011;7738;49.532;11.156;2024-03-08T07:25:28;35.35;;;16.85;;
15273;SDS011;7738;49.532;11.156;2024-03-08T07:27:58;35.50;;;19.25;;
15273;SDS011;7738;49.532;11.156;2024-03-08T07:30:29;30.38;;;16.10;;
15273;SDS011;7738;49.532;11.156;2024-03-08T07:33:12;35.22;;;17.15;;
15273;SDS011;7738;49.532;11.156;2024-03-08T07:35:42;30.60;;;16.95;;
15273;SDS011;7738;49.532;11.156;2024-03-08T07:38:14;34.15;;;17.15;;
15273;SDS011;7738;49.532;11.156;2024-03-08T07:40:50;34.83;;;18.23;;
15273;SDS011;7738;49.532;11.156;2024-03-08T07:43:20;33.40;;;18.20;;
15273;SDS011;7738;49.532;11.156;2024-03-08T07:45:50;35.17;;;18.27;;
15273;SDS011;7738;49.532;11.156;2024-03-08T07:48:21;33.25;;;18.20;;
15273;SDS011;7738;49.532;11.156;2024-03-08T07:50:52;32.50;;;16.50;;
15273;SDS011;7738;49.532;11.156;2024-03-08T07:53:23;32.43;;;17.57;;
15273;SDS011;7738;49.532;11.156;2024-03-08T07:55:56;36.55;;;19.10;;
15273;SDS011;7738;49.532;11.156;2024-03-08T07:58:27;34.28;;;18.33;;
15273;SDS011;7738;49.532;11.156;2024-03-08T08:00:59;30.75;;;16.65;;
15273;SDS011;7738;49.532;11.156;2024-03-08T08:03:29;31.77;;;15.55;;
15273;SDS011;7738;49.532;11.156;2024-03-08T08:06:00;36.30;;;17.17;;
15273;SDS011;7738;49.532;11.156;2024-03-08T08:08:30;37.63;;;17.33;;
15273;SDS011;7738;49.532;11.156;2024-03-08T08:11:03;34.35;;;17.45;;
15273;SDS011;7738;49.532;11.156;2024-03-08T08:13:36;26.38;;;16.05;;
15273;SDS011;7738;49.532;11.156;2024-03-08T08:16:06;30.20;;;15.23;;
15273;SDS011;7738;49.532;11.156;2024-03-08T08:18:37;34.50;;;16.85;;
15273;SDS011;7738;49.532;11.156;2024-03-08T08:21:07;30.70;;;16.05;;
15273;SDS011;7738;49.532;11.156;2024-03-08T08:23:38;28.83;;;17.13;;
15273;SDS011;7738;49.532;11.156;2024-03-08T08:26:11;34.17;;;17.60;;
15273;SDS011;7738;49.532;11.156;2024-03-08T08:28:41;30.38;;;16.50;;
15273;SDS011;7738;49.532;11.156;2024-03-08T08:31:13;28.60;;;15.05;;
15273;SDS011;7738;49.532;11.156;2024-03-08T08:33:43;26.73;;;15.80;;
15273;SDS011;7738;49.532;11.156;2024-03-08T08:36:16;28.77;;;16.45;;
15273;SDS011;7738;49.532;11.156;2024-03-08T08:38:46;25.02;;;14.63;;
15273;SDS011;7738;49.532;11.156;2024-03-08T08:41:20;27.08;;;16.17;;
15273;SDS011;7738;49.532;11.156;2024-03-08T08:43:50;29.33;;;15.32;;
15273;SDS011;7738;49.532;11.156;2024-03-08T08:46:34;32.47;;;15.60;;
15273;SDS011;7738;49.532;11.156;2024-03-08T08:49:07;32.10;;;15.95;;
15273;SDS011;7738;49.532;11.156;2024-03-08T08:51:41;26.38;;;13.55;;
15273;SDS011;7738;49.532;11.156;2024-03-08T08:54:12;25.50;;;13.80;;
15273;SDS011;7738;49.532;11.156;2024-03-08T08:56:46;33.85;;;17.17;;
15273;SDS011;7738;49.532;11.156;2024-03-08T08:59:16;24.45;;;14.60;;
15273;SDS011;7738;49.532;11.156;2024-03-08T09:01:49;27.38;;;14.27;;
15273;SDS011;7738;49.532;11.156;2024-03-08T09:04:20;22.80;;;13.38;;
15273;SDS011;7738;49.532;11.156;2024-03-08T09:06:51;26.27;;;14.35;;
15273;SDS011;7738;49.532;11.156;2024-03-08T09:09:22;24.30;;;14.07;;
15273;SDS011;7738;49.532;11.156;2024-03-08T09:11:55;25.08;;;14.70;;
15273;SDS011;7738;49.532;11.156;2024-03-08T09:14:25;30.02;;;14.23;;
15273;SDS011;7738;49.532;11.156;2024-03-08T09:16:56;31.33;;;13.95;;
15273;SDS011;7738;49.532;11.156;2024-03-08T09:19:26;24.60;;;13.27;;
15273;SDS011;7738;49.532;11.156;2024-03-08T09:21:57;23.85;;;13.60;;
15273;SDS011;7738;49.532;11.156;2024-03-08T09:24:27;27.95;;;13.02;;
15273;SDS011;7738;49.532;11.156;2024-03-08T09:27:01;23.63;;;13.88;;
15273;SDS011;7738;49.532;11.156;2024-03-08T09:29:31;25.00;;;15.02;;
15273;SDS011;7738;49.532;11.156;2024-03-08T09:32:02;23.15;;;13.20;;
15273;SDS011;7738;49.532;11.156;2024-03-08T09:34:32;22.77;;;13.32;;
15273;SDS011;7738;49.532;11.156;2024-03-08T09:37:04;25.77;;;13.73;;
15273;SDS011;7738;49.532;11.156;2024-03-08T09:39:35;25.67;;;12.80;;
15273;SDS011;7738;49.532;11.156;2024-03-08T09:42:09;28.60;;;13.68;;
15273;SDS011;7738;49.532;11.156;2024-03-08T09:44:43;29.70;;;13.57;;
15273;SDS011;7738;49.532;11.156;2024-03-08T09:47:15;22.30;;;12.80;;
15273;SDS011;7738;49.532;11.156;2024-03-08T09:49:47;22.35;;;12.98;;
15273;SDS011;7738;49.532;11.156;2024-03-08T09:52:17;20.45;;;11.68;;
15273;SDS011;7738;49.532;11.156;2024-03-08T09:54:48;18.77;;;10.35;;
15273;SDS011;7738;49.532;11.156;2024-03-08T09:57:21;23.35;;;12.32;;
15273;SDS011;7738;49.532;11.156;2024-03-08T09:59:51;19.27;;;10.88;;
15273;SDS011;7738;49.532;11.156;2024-03-08T10:02:23;19.17;;;11.40;;
15273;SDS011;7738;49.532;11.156;2024-03-08T10:04:53;27.58;;;12.73;;
15273;SDS011;7738;49.532;11.156;2024-03-08T10:07:24;19.02;;;11.45;;
15273;SDS011;7738;49.532;11.156;2024-03-08T10:09:55;18.98;;;10.68;;
15273;SDS011;7738;49.532;11.156;2024-03-08T10:12:28;22.92;;;11.35;;
15273;SDS011;7738;49.532;11.156;2024-03-08T10:14:58;19.05;;;10.82;;
15273;SDS011;7738;49.532;11.156;2024-03-08T10:17:29;23.52;;;11.75;;
15273;SDS011;7738;49.532;11.156;2024-03-08T10:19:59;23.05;;;11.55;;
15273;SDS011;7738;49.532;11.156;2024-03-08T10:22:31;21.40;;;11.45;;
15273;SDS011;7738;49.532;11.156;2024-03-08T10:25:02;22.98;;;11.52;;
15273;SDS011;7738;49.532;11.156;2024-03-08T10:27:36;22.55;;;11.43;;
15273;SDS011;7738;49.532;11.156;2024-03-08T10:30:08;16.35;;;9.43;;
15273;SDS011;7738;49.532;11.156;2024-03-08T10:32:46;16.20;;;9.27;;
15273;SDS011;7738;49.532;11.156;2024-03-08T10:35:18;19.40;;;9.75;;
15273;SDS011;7738;49.532;11.156;2024-03-08T10:37:49;15.18;;;8.82;;
15273;SDS011;7738;49.532;11.156;2024-03-08T10:40:25;16.15;;;9.52;;
15273;SDS011;7738;49.532;11.156;2024-03-08T10:42:59;17.80;;;9.90;;
15273;SDS011;7738;49.532;11.156;2024-03-08T10:45:31;16.23;;;9.07;;
15273;SDS011;7738;49.532;11.156;2024-03-08T10:48:16;16.45;;;9.68;;
15273;SDS011;7738;49.532;11.156;2024-03-08T10:51:04;16.80;;;8.68;;
15273;SDS011;7738;49.532;11.156;2024-03-08T10:53:35;19.15;;;9.18;;
15273;SDS011;7738;49.532;11.156;2024-03-08T10:56:08;15.20;;;9.40;;
15273;SDS011;7738;49.532;11.156;2024-03-08T10:58:43;17.55;;;10.23;;
15273;SDS011;7738;49.532;11.156;2024-03-08T11:01:16;14.60;;;9.63;;
15273;SDS011;7738;49.532;11.156;2024-03-08T11:03:47;14.95;;;8.95;;
15273;SDS011;7738;49.532;11.156;2024-03-08T11:06:22;16.17;;;9.93;;
15273;SDS011;7738;49.532;11.156;2024-03-08T11:08:59;17.05;;;8.77;;
15273;SDS011;7738;49.532;11.156;2024-03-08T11:11:30;14.30;;;8.82;;
15273;SDS011;7738;49.532;11.156;2024-03-08T11:14:04;17.85;;;9.35;;
15273;SDS011;7738;49.532;11.156;2024-03-08T11:16:40;12.65;;;7.72;;
15273;SDS011;7738;49.532;11.156;2024-03-08T11:19:23;12.60;;;7.28;;
15273;SDS011;7738;49.532;11.156;2024-03-08T11:22:02;9.98;;;6.47;;
15273;SDS011;7738;49.532;11.156;2024-03-08T11:24:38;13.27;;;6.75;;
15273;SDS011;7738;49.532;11.156;2024-03-08T11:27:12;12.68;;;7.05;;
15273;SDS011;7738;49.532;11.156;2024-03-08T11:29:45;12.70;;;6.55;;
15273;SDS011;7738;49.532;11.156;2024-03-08T11:32:29;16.35;;;9.00;;
15273;SDS011;7738;49.532;11.156;2024-03-08T11:34:59;14.23;;;6.93;;
15273;SDS011;7738;49.532;11.156;2024-03-08T11:37:33;11.73;;;7.43;;
15273;SDS011;7738;49.532;11.156;2024-03-08T11:40:11;13.57;;;7.97;;
15273;SDS011;7738;49.532;11.156;2024-03-08T11:42:44;13.07;;;8.10;;
15273;SDS011;7738;49.532;11.156;2024-03-08T11:45:21;12.18;;;7.80;;
15273;SDS011;7738;49.532;11.156;2024-03-08T11:47:51;14.75;;;8.52;;
15273;SDS011;7738;49.532;11.156;2024-03-08T11:50:24;16.10;;;8.82;;
15273;SDS011;7738;49.532;11.156;2024-03-08T11:52:59;11.82;;;7.70;;
15273;SDS011;7738;49.532;11.156;2024-03-08T11:55:31;18.00;;;9.15;;
15273;SDS011;7738;49.532;11.156;2024-03-08T11:58:02;12.10;;;7.72;;
15273;SDS011;7738;49.532;11.156;2024-03-08T12:00:37;15.30;;;9.10;;
15273;SDS011;7738;49.532;11.156;2024-03-08T12:03:08;15.52;;;9.20;;
15273;SDS011;7738;49.532;11.156;2024-03-08T12:05:38;16.27;;;9.15;;
15273;SDS011;7738;49.532;11.156;2024-03-08T12:08:06;14.13;;;8.82;;
15273;SDS011;7738;49.532;11.156;2024-03-08T12:10:40;15.27;;;8.40;;
15273;SDS011;7738;49.532;11.156;2024-03-08T12:13:10;16.02;;;8.65;;
15273;SDS011;7738;49.532;11.156;2024-03-08T12:15:43;19.20;;;11.32;;
15273;SDS011;7738;49.532;11.156;2024-03-08T12:18:14;12.75;;;7.57;;
15273;SDS011;7738;49.532;11.156;2024-03-08T12:20:44;17.80;;;9.13;;
15273;SDS011;7738;49.532;11.156;2024-03-08T12:23:16;14.55;;;8.57;;
15273;SDS011;7738;49.532;11.156;2024-03-08T12:25:47;14.23;;;8.75;;
15273;SDS011;7738;49.532;11.156;2024-03-08T12:28:18;17.95;;;10.48;;
15273;SDS011;7738;49.532;11.156;2024-03-08T12:30:51;16.10;;;9.65;;
15273;SDS011;7738;49.532;11.156;2024-03-08T12:33:25;13.15;;;7.90;;
15273;SDS011;7738;49.532;11.156;2024-03-08T12:35:56;17.05;;;8.77;;
15273;SDS011;7738;49.532;11.156;2024-03-08T12:38:27;17.83;;;7.82;;
15273;SDS011;7738;49.532;11.156;2024-03-08T12:40:58;17.95;;;8.75;;
15273;SDS011;7738;49.532;11.156;2024-03-08T12:43:29;12.80;;;7.90;;
15273;SDS011;7738;49.532;11.156;2024-03-08T12:46:03;13.85;;;7.75;;
15273;SDS011;7738;49.532;11.156;2024-03-08T12:48:35;14.10;;;8.18;;
15273;SDS011;7738;49.532;11.156;2024-03-08T12:51:07;13.85;;;8.13;;
15273;SDS011;7738;49.532;11.156;2024-03-08T12:53:37;13.35;;;7.32;;
15273;SDS011;7738;49.532;11.156;2024-03-08T12:56:10;13.68;;;8.15;;
15273;SDS011;7738;49.532;11.156;2024-03-08T12:58:41;12.95;;;7.75;;
15273;SDS011;7738;49.532;11.156;2024-03-08T13:01:14;14.82;;;8.27;;
15273;SDS011;7738;49.532;11.156;2024-03-08T13:03:44;11.97;;;8.10;;
15273;SDS011;7738;49.532;11.156;2024-03-08T13:06:16;13.32;;;7.35;;
15273;SDS011;7738;49.532;11.156;2024-03-08T13:08:48;13.68;;;6.90;;
15273;SDS011;7738;49.532;11.156;2024-03-08T13:11:20;13.88;;;7.43;;
15273;SDS011;7738;49.532;11.156;2024-03-08T13:13:51;13.32;;;8.00;;
15273;SDS011;7738;49.532;11.156;2024-03-08T13:16:24;13.57;;;7.35;;
15273;SDS011;7738;49.532;11.156;2024-03-08T13:18:56;12.02;;;6.45;;
15273;SDS011;7738;49.532;11.156;2024-03-08T13:21:27;13.45;;;6.40;;
15273;SDS011;7738;49.532;11.156;2024-03-08T13:23:58;11.75;;;6.53;;
15273;SDS011;7738;49.532;11.156;2024-03-08T13:26:30;11.82;;;6.75;;
15273;SDS011;7738;49.532;11.156;2024-03-08T13:29:00;11.40;;;6.95;;
15273;SDS011;7738;49.532;11.156;2024-03-08T13:31:35;13.75;;;7.07;;
15273;SDS011;7738;49.532;11.156;2024-03-08T13:34:06;14.98;;;6.88;;
15273;SDS011;7738;49.532;11.156;2024-03-08T13:36:38;9.52;;;6.30;;
15273;SDS011;7738;49.532;11.156;2024-03-08T13:39:11;12.23;;;5.80;;
15273;SDS011;7738;49.532;11.156;2024-03-08T13:41:47;11.30;;;5.88;;
15273;SDS011;7738;49.532;11.156;2024-03-08T13:44:17;9.90;;;6.20;;
15273;SDS011;7738;49.532;11.156;2024-03-08T13:46:50;9.50;;;6.07;;
15273;SDS011;7738;49.532;11.156;2024-03-08T13:49:25;10.80;;;5.63;;
15273;SDS011;7738;49.532;11.156;2024-03-08T13:51:56;9.48;;;6.03;;
15273;SDS011;7738;49.532;11.156;2024-03-08T13:54:27;8.40;;;5.68;;
15273;SDS011;7738;49.532;11.156;2024-03-08T13:56:58;9.70;;;6.25;;
15273;SDS011;7738;49.532;11.156;2024-03-08T13:59:30;10.85;;;5.78;;
15273;SDS011;7738;49.532;11.156;2024-03-08T14:02:04;8.63;;;5.63;;
15273;SDS011;7738;49.532;11.156;2024-03-08T14:04:40;10.27;;;5.90;;
15273;SDS011;7738;49.532;11.156;2024-03-08T14:07:11;9.32;;;5.43;;
15273;SDS011;7738;49.532;11.156;2024-03-08T14:09:43;12.88;;;6.95;;
15273;SDS011;7738;49.532;11.156;2024-03-08T14:12:13;11.43;;;6.13;;
15273;SDS011;7738;49.532;11.156;2024-03-08T14:14:45;10.48;;;5.85;;
15273;SDS011;7738;49.532;11.156;2024-03-08T14:17:18;9.70;;;5.97;;
15273;SDS011;7738;49.532;11.156;2024-03-08T14:19:50;8.90;;;5.50;;
15273;SDS011;7738;49.532;11.156;2024-03-08T14:22:21;10.18;;;5.70;;
15273;SDS011;7738;49.532;11.156;2024-03-08T14:24:52;11.45;;;6.20;;
15273;SDS011;7738;49.532;11.156;2024-03-08T14:27:23;8.18;;;5.30;;
15273;SDS011;7738;49.532;11.156;2024-03-08T14:29:55;9.07;;;5.13;;
15273;SDS011;7738;49.532;11.156;2024-03-08T14:32:29;11.23;;;6.07;;
15273;SDS011;7738;49.532;11.156;2024-03-08T14:34:59;8.93;;;6.13;;
15273;SDS011;7738;49.532;11.156;2024-03-08T14:37:30;9.45;;;6.03;;
15273;SDS011;7738;49.532;11.156;2024-03-08T14:40:00;12.57;;;5.95;;
15273;SDS011;7738;49.532;11.156;2024-03-08T14:42:32;11.70;;;5.72;;
15273;SDS011;7738;49.532;11.156;2024-03-08T14:45:02;7.93;;;5.43;;
15273;SDS011;7738;49.532;11.156;2024-03-08T14:47:36;12.70;;;5.70;;
15273;SDS011;7738;49.532;11.156;2024-03-08T14:50:06;10.43;;;5.20;;
15273;SDS011;7738;49.532;11.156;2024-03-08T14:52:39;9.15;;;5.68;;